sensor_id;sensor_type;location;lat;lon;timestamp;temperature;humidity
22081;DHT22;11207;59.512;18.050;2023-04-15T00:00:28;2.40;99.90
22081;DHT22;11207;59.512;18.050;2023-04-15T00:02:53;2.40;99.90
22081;DHT22;11207;59.512;18.050;2023-04-15T00:05:20;2.30;99.90
22081;DHT22;11207;59.512;18.050;2023-04-15T00:07:46;2.20;99.90
22081;DHT22;11207;59.512;18.050;2023-04-15T00:10:12;2.20;99.90
22081;DHT22;11207;59.512;18.050;2023-04-15T00:12:38;2.20;99.90
22081;DHT22;11207;59.512;18.050;2023-04-15T00:15:05;2.20;99.90
22081;DHT22;11207;59.512;18.050;2023-04-15T00:17:32;2.20;99.90
22081;DHT22;11207;59.512;18.050;2023-04-15T00:19:58;2.10;99.90
22081;DHT22;11207;59.512;18.050;2023-04-15T00:22:25;2.10;99.90
22081;DHT22;11207;59.512;18.050;2023-04-15T00:24:52;2.10;99.90
22081;DHT22;11207;59.512;18.050;2023-04-15T00:27:18;2.10;99.90
22081;DHT22;11207;59.512;18.050;2023-04-15T00:29:44;2.10;99.90
22081;DHT22;11207;59.512;18.050;2023-04-15T00:32:09;2.00;99.90
22081;DHT22;11207;59.512;18.050;2023-04-15T00:34:35;1.90;99.90
22081;DHT22;11207;59.512;18.050;2023-04-15T00:37:01;1.90;99.90
22081;DHT22;11207;59.512;18.050;2023-04-15T00:39:27;1.80;99.90
22081;DHT22;11207;59.512;18.050;2023-04-15T00:41:52;1.80;99.90
22081;DHT22;11207;59.512;18.050;2023-04-15T00:44:19;1.70;99.90
22081;DHT22;11207;59.512;18.050;2023-04-15T00:46:45;1.60;99.90
22081;DHT22;11207;59.512;18.050;2023-04-15T00:49:11;1.60;99.90
22081;DHT22;11207;59.512;18.050;2023-04-15T00:51:37;1.70;99.90
22081;DHT22;11207;59.512;18.050;2023-04-15T00:54:03;1.60;99.90
22081;DHT22;11207;59.512;18.050;2023-04-15T00:56:29;1.60;99.90
22081;DHT22;11207;59.512;18.050;2023-04-15T00:58:56;1.70;99.90
22081;DHT22;11207;59.512;18.050;2023-04-15T01:01:23;1.60;99.90
22081;DHT22;11207;59.512;18.050;2023-04-15T01:03:49;1.60;99.90
22081;DHT22;11207;59.512;18.050;2023-04-15T01:06:16;1.60;99.90
22081;DHT22;11207;59.512;18.050;2023-04-15T01:08:42;1.60;99.90
22081;DHT22;11207;59.512;18.050;2023-04-15T01:11:08;1.60;99.90
22081;DHT22;11207;59.512;18.050;2023-04-15T01:13:35;1.50;99.90
22081;DHT22;11207;59.512;18.050;2023-04-15T01:16:01;1.50;99.90
22081;DHT22;11207;59.512;18.050;2023-04-15T01:18:27;1.40;99.90
22081;DHT22;11207;59.512;18.050;2023-04-15T01:20:53;1.50;99.90
22081;DHT22;11207;59.512;18.050;2023-04-15T01:23:20;1.50;99.90
22081;DHT22;11207;59.512;18.050;2023-04-15T01:25:48;1.60;99.90
22081;DHT22;11207;59.512;18.050;2023-04-15T01:28:14;1.70;99.90
22081;DHT22;11207;59.512;18.050;2023-04-15T01:30:40;1.50;99.90
22081;DHT22;11207;59.512;18.050;2023-04-15T01:33:06;1.50;99.90
22081;DHT22;11207;59.512;18.050;2023-04-15T01:35:31;1.50;99.90
22081;DHT22;11207;59.512;18.050;2023-04-15T01:38:06;1.60;99.90
22081;DHT22;11207;59.512;18.050;2023-04-15T01:40:32;1.60;99.90
22081;DHT22;11207;59.512;18.050;2023-04-15T01:42:58;1.60;99.90
22081;DHT22;11207;59.512;18.050;2023-04-15T01:45:24;1.60;99.90
22081;DHT22;11207;59.512;18.050;2023-04-15T01:47:50;1.50;99.90
22081;DHT22;11207;59.512;18.050;2023-04-15T01:50:15;1.50;99.90
22081;DHT22;11207;59.512;18.050;2023-04-15T01:52:41;1.50;99.90
22081;DHT22;11207;59.512;18.050;2023-04-15T01:55:08;1.50;99.90
22081;DHT22;11207;59.512;18.050;2023-04-15T01:57:34;1.60;99.90
22081;DHT22;11207;59.512;18.050;2023-04-15T01:59:59;1.60;99.90
22081;DHT22;11207;59.512;18.050;2023-04-15T02:02:25;1.60;99.90
22081;DHT22;11207;59.512;18.050;2023-04-15T02:04:51;1.70;99.90
22081;DHT22;11207;59.512;18.050;2023-04-15T02:07:17;1.70;99.90
22081;DHT22;11207;59.512;18.050;2023-04-15T02:09:43;2.00;99.90
22081;DHT22;11207;59.512;18.050;2023-04-15T02:12:10;2.00;99.90
22081;DHT22;11207;59.512;18.050;2023-04-15T02:14:36;2.00;99.90
22081;DHT22;11207;59.512;18.050;2023-04-15T02:17:01;1.90;99.90
22081;DHT22;11207;59.512;18.050;2023-04-15T02:19:32;2.20;99.90
22081;DHT22;11207;59.512;18.050;2023-04-15T02:21:58;2.10;99.90
22081;DHT22;11207;59.512;18.050;2023-04-15T02:24:26;2.10;99.90
22081;DHT22;11207;59.512;18.050;2023-04-15T02:26:52;2.30;99.90
22081;DHT22;11207;59.512;18.050;2023-04-15T02:29:17;2.30;99.90
22081;DHT22;11207;59.512;18.050;2023-04-15T02:31:43;2.40;99.90
22081;DHT22;11207;59.512;18.050;2023-04-15T02:34:09;2.40;99.90
22081;DHT22;11207;59.512;18.050;2023-04-15T02:36:35;2.50;99.90
22081;DHT22;11207;59.512;18.050;2023-04-15T02:39:01;2.50;99.90
22081;DHT22;11207;59.512;18.050;2023-04-15T02:41:27;2.50;99.90
22081;DHT22;11207;59.512;18.050;2023-04-15T02:43:54;2.50;99.90
22081;DHT22;11207;59.512;18.050;2023-04-15T02:46:20;2.50;99.90
22081;DHT22;11207;59.512;18.050;2023-04-15T02:48:47;2.60;99.90
22081;DHT22;11207;59.512;18.050;2023-04-15T02:51:20;2.60;99.90
22081;DHT22;11207;59.512;18.050;2023-04-15T02:53:47;2.60;99.90
22081;DHT22;11207;59.512;18.050;2023-04-15T02:56:13;2.70;99.90
22081;DHT22;11207;59.512;18.050;2023-04-15T02:58:44;2.80;99.90
22081;DHT22;11207;59.512;18.050;2023-04-15T03:01:14;2.80;99.90
22081;DHT22;11207;59.512;18.050;2023-04-15T03:03:40;2.70;99.90
22081;DHT22;11207;59.512;18.050;2023-04-15T03:06:06;2.70;99.90
22081;DHT22;11207;59.512;18.050;2023-04-15T03:08:33;2.70;99.90
22081;DHT22;11207;59.512;18.050;2023-04-15T03:10:58;2.80;99.90
22081;DHT22;11207;59.512;18.050;2023-04-15T03:13:25;2.80;99.90
22081;DHT22;11207;59.512;18.050;2023-04-15T03:15:50;2.80;99.90
22081;DHT22;11207;59.512;18.050;2023-04-15T03:18:16;2.80;99.90
22081;DHT22;11207;59.512;18.050;2023-04-15T03:20:42;2.80;99.90
22081;DHT22;11207;59.512;18.050;2023-04-15T03:23:07;2.90;99.90
22081;DHT22;11207;59.512;18.050;2023-04-15T03:25:33;2.80;99.90
22081;DHT22;11207;59.512;18.050;2023-04-15T03:27:59;2.90;99.90
22081;DHT22;11207;59.512;18.050;2023-04-15T03:30:25;2.90;99.90
22081;DHT22;11207;59.512;18.050;2023-04-15T03:32:50;2.90;99.90
22081;DHT22;11207;59.512;18.050;2023-04-15T03:35:16;3.00;99.90
22081;DHT22;11207;59.512;18.050;2023-04-15T03:37:42;3.00;99.90
22081;DHT22;11207;59.512;18.050;2023-04-15T03:40:07;3.00;99.90
22081;DHT22;11207;59.512;18.050;2023-04-15T03:42:34;3.00;99.90
22081;DHT22;11207;59.512;18.050;2023-04-15T03:44:59;3.00;99.90
22081;DHT22;11207;59.512;18.050;2023-04-15T03:47:25;2.90;99.90
22081;DHT22;11207;59.512;18.050;2023-04-15T03:49:51;3.00;99.90
22081;DHT22;11207;59.512;18.050;2023-04-15T03:52:16;3.00;99.90
22081;DHT22;11207;59.512;18.050;2023-04-15T03:54:42;3.10;99.90
22081;DHT22;11207;59.512;18.050;2023-04-15T03:57:07;3.00;99.90
22081;DHT22;11207;59.512;18.050;2023-04-15T03:59:33;3.00;99.90
22081;DHT22;11207;59.512;18.050;2023-04-15T04:01:58;3.00;99.90
22081;DHT22;11207;59.512;18.050;2023-04-15T04:04:24;3.20;99.90
22081;DHT22;11207;59.512;18.050;2023-04-15T04:06:50;3.10;99.90
22081;DHT22;11207;59.512;18.050;2023-04-15T04:09:16;3.20;99.90
22081;DHT22;11207;59.512;18.050;2023-04-15T04:11:41;3.20;99.90
22081;DHT22;11207;59.512;18.050;2023-04-15T04:14:07;3.20;99.90
22081;DHT22;11207;59.512;18.050;2023-04-15T04:16:33;3.30;99.90
22081;DHT22;11207;59.512;18.050;2023-04-15T04:18:58;3.30;99.90
22081;DHT22;11207;59.512;18.050;2023-04-15T04:21:24;3.30;99.90
22081;DHT22;11207;59.512;18.050;2023-04-15T04:23:51;3.30;99.90
22081;DHT22;11207;59.512;18.050;2023-04-15T04:26:16;3.30;99.90
22081;DHT22;11207;59.512;18.050;2023-04-15T04:28:42;3.40;99.90
22081;DHT22;11207;59.512;18.050;2023-04-15T04:31:07;3.40;99.90
22081;DHT22;11207;59.512;18.050;2023-04-15T04:33:33;3.40;99.90
22081;DHT22;11207;59.512;18.050;2023-04-15T04:35:59;3.50;99.90
22081;DHT22;11207;59.512;18.050;2023-04-15T04:38:24;3.60;99.90
22081;DHT22;11207;59.512;18.050;2023-04-15T04:40:50;3.70;99.90
22081;DHT22;11207;59.512;18.050;2023-04-15T04:43:15;3.70;99.90
22081;DHT22;11207;59.512;18.050;2023-04-15T04:45:41;3.80;99.90
22081;DHT22;11207;59.512;18.050;2023-04-15T04:48:07;3.80;99.90
22081;DHT22;11207;59.512;18.050;2023-04-15T04:50:33;3.80;99.90
22081;DHT22;11207;59.512;18.050;2023-04-15T04:53:00;3.80;99.90
22081;DHT22;11207;59.512;18.050;2023-04-15T04:55:26;3.80;99.90
22081;DHT22;11207;59.512;18.050;2023-04-15T04:57:51;3.80;99.90
22081;DHT22;11207;59.512;18.050;2023-04-15T05:00:17;3.90;99.90
22081;DHT22;11207;59.512;18.050;2023-04-15T05:02:43;3.90;99.90
22081;DHT22;11207;59.512;18.050;2023-04-15T05:05:10;4.00;99.90
22081;DHT22;11207;59.512;18.050;2023-04-15T05:07:36;4.00;99.90
22081;DHT22;11207;59.512;18.050;2023-04-15T05:10:02;4.10;99.90
22081;DHT22;11207;59.512;18.050;2023-04-15T05:12:28;4.00;99.90
22081;DHT22;11207;59.512;18.050;2023-04-15T05:14:54;4.00;99.90
22081;DHT22;11207;59.512;18.050;2023-04-15T05:17:19;4.00;99.90
22081;DHT22;11207;59.512;18.050;2023-04-15T05:19:45;4.20;99.90
22081;DHT22;11207;59.512;18.050;2023-04-15T05:22:10;4.00;99.90
22081;DHT22;11207;59.512;18.050;2023-04-15T05:24:36;4.10;99.90
22081;DHT22;11207;59.512;18.050;2023-04-15T05:27:02;4.20;99.90
22081;DHT22;11207;59.512;18.050;2023-04-15T05:29:28;4.10;99.90
22081;DHT22;11207;59.512;18.050;2023-04-15T05:31:54;4.20;99.90
22081;DHT22;11207;59.512;18.050;2023-04-15T05:34:20;4.20;99.90
22081;DHT22;11207;59.512;18.050;2023-04-15T05:36:46;4.20;99.90
22081;DHT22;11207;59.512;18.050;2023-04-15T05:39:11;4.30;99.90
22081;DHT22;11207;59.512;18.050;2023-04-15T05:41:37;4.40;99.90
22081;DHT22;11207;59.512;18.050;2023-04-15T05:44:02;4.30;99.90
22081;DHT22;11207;59.512;18.050;2023-04-15T05:46:28;4.50;99.90
22081;DHT22;11207;59.512;18.050;2023-04-15T05:48:54;4.60;99.90
22081;DHT22;11207;59.512;18.050;2023-04-15T05:51:19;4.60;99.90
22081;DHT22;11207;59.512;18.050;2023-04-15T05:53:45;4.60;99.90
22081;DHT22;11207;59.512;18.050;2023-04-15T05:56:11;4.80;99.90
22081;DHT22;11207;59.512;18.050;2023-04-15T05:58:36;4.80;99.90
22081;DHT22;11207;59.512;18.050;2023-04-15T06:01:02;4.90;99.90
22081;DHT22;11207;59.512;18.050;2023-04-15T06:03:28;5.00;99.90
22081;DHT22;11207;59.512;18.050;2023-04-15T06:05:54;5.10;99.90
22081;DHT22;11207;59.512;18.050;2023-04-15T06:08:20;5.20;99.90
22081;DHT22;11207;59.512;18.050;2023-04-15T06:10:46;5.30;99.90
22081;DHT22;11207;59.512;18.050;2023-04-15T06:13:12;5.30;99.90
22081;DHT22;11207;59.512;18.050;2023-04-15T06:15:38;5.50;99.90
22081;DHT22;11207;59.512;18.050;2023-04-15T06:18:03;5.60;99.90
22081;DHT22;11207;59.512;18.050;2023-04-15T06:20:29;5.70;99.90
22081;DHT22;11207;59.512;18.050;2023-04-15T06:22:55;5.80;99.90
22081;DHT22;11207;59.512;18.050;2023-04-15T06:25:21;5.80;99.90
22081;DHT22;11207;59.512;18.050;2023-04-15T06:27:47;5.90;99.90
22081;DHT22;11207;59.512;18.050;2023-04-15T06:30:13;5.90;99.90
22081;DHT22;11207;59.512;18.050;2023-04-15T06:32:38;5.90;99.90
22081;DHT22;11207;59.512;18.050;2023-04-15T06:35:04;6.10;99.90
22081;DHT22;11207;59.512;18.050;2023-04-15T06:37:30;6.20;99.90
22081;DHT22;11207;59.512;18.050;2023-04-15T06:39:57;6.30;99.90
22081;DHT22;11207;59.512;18.050;2023-04-15T06:42:22;6.30;99.90
22081;DHT22;11207;59.512;18.050;2023-04-15T06:44:48;6.30;99.90
22081;DHT22;11207;59.512;18.050;2023-04-15T06:47:14;6.40;99.90
22081;DHT22;11207;59.512;18.050;2023-04-15T06:49:40;6.40;99.90
22081;DHT22;11207;59.512;18.050;2023-04-15T06:52:05;6.40;99.90
22081;DHT22;11207;59.512;18.050;2023-04-15T06:54:31;6.40;99.90
22081;DHT22;11207;59.512;18.050;2023-04-15T06:56:57;6.50;99.90
22081;DHT22;11207;59.512;18.050;2023-04-15T06:59:23;6.60;99.90
22081;DHT22;11207;59.512;18.050;2023-04-15T07:01:48;6.60;99.90
22081;DHT22;11207;59.512;18.050;2023-04-15T07:04:14;6.70;99.90
22081;DHT22;11207;59.512;18.050;2023-04-15T07:06:39;6.80;99.90
22081;DHT22;11207;59.512;18.050;2023-04-15T07:09:06;6.80;99.90
22081;DHT22;11207;59.512;18.050;2023-04-15T07:11:33;6.90;99.90
22081;DHT22;11207;59.512;18.050;2023-04-15T07:13:58;7.10;99.90
22081;DHT22;11207;59.512;18.050;2023-04-15T07:16:24;7.10;99.90
22081;DHT22;11207;59.512;18.050;2023-04-15T07:18:49;7.10;99.90
22081;DHT22;11207;59.512;18.050;2023-04-15T07:21:15;7.10;99.90
22081;DHT22;11207;59.512;18.050;2023-04-15T07:23:45;7.30;99.90
22081;DHT22;11207;59.512;18.050;2023-04-15T07:26:13;7.30;99.90
22081;DHT22;11207;59.512;18.050;2023-04-15T07:28:39;7.30;99.90
22081;DHT22;11207;59.512;18.050;2023-04-15T07:31:05;7.40;99.90
22081;DHT22;11207;59.512;18.050;2023-04-15T07:33:30;7.60;99.90
22081;DHT22;11207;59.512;18.050;2023-04-15T07:35:56;7.60;99.90
22081;DHT22;11207;59.512;18.050;2023-04-15T07:38:21;7.70;99.90
22081;DHT22;11207;59.512;18.050;2023-04-15T07:40:47;7.70;99.90
22081;DHT22;11207;59.512;18.050;2023-04-15T07:43:14;7.90;99.90
22081;DHT22;11207;59.512;18.050;2023-04-15T07:45:40;7.90;99.90
22081;DHT22;11207;59.512;18.050;2023-04-15T07:48:05;7.90;99.90
22081;DHT22;11207;59.512;18.050;2023-04-15T07:50:31;8.00;99.90
22081;DHT22;11207;59.512;18.050;2023-04-15T07:52:57;8.00;99.90
22081;DHT22;11207;59.512;18.050;2023-04-15T07:55:22;8.10;99.90
22081;DHT22;11207;59.512;18.050;2023-04-15T07:57:49;8.10;99.90
22081;DHT22;11207;59.512;18.050;2023-04-15T08:00:15;8.10;99.90
22081;DHT22;11207;59.512;18.050;2023-04-15T08:02:41;8.30;99.90
22081;DHT22;11207;59.512;18.050;2023-04-15T08:05:08;8.40;99.90
22081;DHT22;11207;59.512;18.050;2023-04-15T08:07:36;8.40;99.90
22081;DHT22;11207;59.512;18.050;2023-04-15T08:10:02;8.70;99.90
22081;DHT22;11207;59.512;18.050;2023-04-15T08:12:28;8.80;99.90
22081;DHT22;11207;59.512;18.050;2023-04-15T08:14:54;8.80;99.90
22081;DHT22;11207;59.512;18.050;2023-04-15T08:17:20;8.80;99.90
22081;DHT22;11207;59.512;18.050;2023-04-15T08:19:46;8.90;99.90
22081;DHT22;11207;59.512;18.050;2023-04-15T08:22:13;9.00;99.90
22081;DHT22;11207;59.512;18.050;2023-04-15T08:24:38;9.00;99.90
22081;DHT22;11207;59.512;18.050;2023-04-15T08:27:04;9.00;99.90
22081;DHT22;11207;59.512;18.050;2023-04-15T08:29:31;9.00;99.90
22081;DHT22;11207;59.512;18.050;2023-04-15T08:31:59;9.10;99.90
22081;DHT22;11207;59.512;18.050;2023-04-15T08:34:25;9.20;99.90
22081;DHT22;11207;59.512;18.050;2023-04-15T08:36:51;9.20;99.90
22081;DHT22;11207;59.512;18.050;2023-04-15T08:39:17;9.40;99.90
22081;DHT22;11207;59.512;18.050;2023-04-15T08:41:47;9.40;99.90
22081;DHT22;11207;59.512;18.050;2023-04-15T08:44:16;9.40;99.90
22081;DHT22;11207;59.512;18.050;2023-04-15T08:46:42;9.50;99.90
22081;DHT22;11207;59.512;18.050;2023-04-15T08:49:12;9.50;99.90
22081;DHT22;11207;59.512;18.050;2023-04-15T08:51:41;9.70;99.90
22081;DHT22;11207;59.512;18.050;2023-04-15T08:54:10;9.60;99.90
22081;DHT22;11207;59.512;18.050;2023-04-15T08:56:38;9.70;99.90
22081;DHT22;11207;59.512;18.050;2023-04-15T08:59:04;9.70;99.90
22081;DHT22;11207;59.512;18.050;2023-04-15T09:01:31;9.80;99.90
22081;DHT22;11207;59.512;18.050;2023-04-15T09:03:58;9.80;99.90
22081;DHT22;11207;59.512;18.050;2023-04-15T09:06:24;9.90;99.90
22081;DHT22;11207;59.512;18.050;2023-04-15T09:08:51;9.90;99.20
22081;DHT22;11207;59.512;18.050;2023-04-15T09:11:17;9.90;99.40
22081;DHT22;11207;59.512;18.050;2023-04-15T09:13:44;10.00;99.90
22081;DHT22;11207;59.512;18.050;2023-04-15T09:16:10;10.10;99.90
22081;DHT22;11207;59.512;18.050;2023-04-15T09:18:37;10.20;99.90
22081;DHT22;11207;59.512;18.050;2023-04-15T09:21:13;10.40;99.90
22081;DHT22;11207;59.512;18.050;2023-04-15T09:23:40;10.60;99.90
22081;DHT22;11207;59.512;18.050;2023-04-15T09:26:06;10.70;99.90
22081;DHT22;11207;59.512;18.050;2023-04-15T09:28:33;11.00;99.50
22081;DHT22;11207;59.512;18.050;2023-04-15T09:31:05;11.10;99.80
22081;DHT22;11207;59.512;18.050;2023-04-15T09:33:31;11.20;99.70
22081;DHT22;11207;59.512;18.050;2023-04-15T09:36:04;11.10;99.90
22081;DHT22;11207;59.512;18.050;2023-04-15T09:38:30;11.10;99.70
22081;DHT22;11207;59.512;18.050;2023-04-15T09:40:57;11.20;98.10
22081;DHT22;11207;59.512;18.050;2023-04-15T09:43:36;11.30;97.30
22081;DHT22;11207;59.512;18.050;2023-04-15T09:46:02;11.40;99.50
22081;DHT22;11207;59.512;18.050;2023-04-15T09:48:27;11.40;95.90
22081;DHT22;11207;59.512;18.050;2023-04-15T09:50:59;11.50;96.50
22081;DHT22;11207;59.512;18.050;2023-04-15T09:53:26;11.60;99.90
22081;DHT22;11207;59.512;18.050;2023-04-15T09:55:55;11.80;97.50
22081;DHT22;11207;59.512;18.050;2023-04-15T09:58:28;11.80;99.90
22081;DHT22;11207;59.512;18.050;2023-04-15T10:00:56;11.90;95.00
22081;DHT22;11207;59.512;18.050;2023-04-15T10:03:25;11.90;94.40
22081;DHT22;11207;59.512;18.050;2023-04-15T10:05:53;12.00;96.50
22081;DHT22;11207;59.512;18.050;2023-04-15T10:08:25;11.90;97.60
22081;DHT22;11207;59.512;18.050;2023-04-15T10:10:52;12.10;99.90
22081;DHT22;11207;59.512;18.050;2023-04-15T10:13:22;12.30;99.60
22081;DHT22;11207;59.512;18.050;2023-04-15T10:15:59;12.10;95.50
22081;DHT22;11207;59.512;18.050;2023-04-15T10:18:26;12.30;96.80
22081;DHT22;11207;59.512;18.050;2023-04-15T10:20:53;12.30;91.90
22081;DHT22;11207;59.512;18.050;2023-04-15T10:23:19;12.60;99.90
22081;DHT22;11207;59.512;18.050;2023-04-15T10:25:46;12.90;96.20
22081;DHT22;11207;59.512;18.050;2023-04-15T10:28:11;12.80;95.30
22081;DHT22;11207;59.512;18.050;2023-04-15T10:30:37;12.70;91.60
22081;DHT22;11207;59.512;18.050;2023-04-15T10:33:04;13.00;99.90
22081;DHT22;11207;59.512;18.050;2023-04-15T10:35:31;13.10;99.90
22081;DHT22;11207;59.512;18.050;2023-04-15T10:37:58;13.10;87.40
22081;DHT22;11207;59.512;18.050;2023-04-15T10:40:31;12.90;88.80
22081;DHT22;11207;59.512;18.050;2023-04-15T10:42:58;12.90;90.60
22081;DHT22;11207;59.512;18.050;2023-04-15T10:45:35;12.90;81.90
22081;DHT22;11207;59.512;18.050;2023-04-15T10:48:03;13.00;81.90
22081;DHT22;11207;59.512;18.050;2023-04-15T10:50:33;13.10;93.90
22081;DHT22;11207;59.512;18.050;2023-04-15T10:53:02;12.90;82.30
22081;DHT22;11207;59.512;18.050;2023-04-15T10:55:32;13.20;96.80
22081;DHT22;11207;59.512;18.050;2023-04-15T10:57:59;13.40;96.20
22081;DHT22;11207;59.512;18.050;2023-04-15T11:00:31;13.20;85.40
22081;DHT22;11207;59.512;18.050;2023-04-15T11:02:59;13.00;92.10
22081;DHT22;11207;59.512;18.050;2023-04-15T11:08:07;13.10;94.40
22081;DHT22;11207;59.512;18.050;2023-04-15T11:13:03;13.40;85.70
22081;DHT22;11207;59.512;18.050;2023-04-15T11:15:35;13.40;92.50
22081;DHT22;11207;59.512;18.050;2023-04-15T11:18:14;13.90;93.40
22081;DHT22;11207;59.512;18.050;2023-04-15T11:20:47;14.10;86.30
22081;DHT22;11207;59.512;18.050;2023-04-15T11:23:16;13.90;83.40
22081;DHT22;11207;59.512;18.050;2023-04-15T11:25:42;13.60;83.50
22081;DHT22;11207;59.512;18.050;2023-04-15T11:28:08;13.40;79.50
22081;DHT22;11207;59.512;18.050;2023-04-15T11:30:36;13.40;90.80
22081;DHT22;11207;59.512;18.050;2023-04-15T11:33:06;13.20;82.60
22081;DHT22;11207;59.512;18.050;2023-04-15T11:35:33;13.20;81.50
22081;DHT22;11207;59.512;18.050;2023-04-15T11:38:02;13.20;80.10
22081;DHT22;11207;59.512;18.050;2023-04-15T11:40:29;13.30;86.00
22081;DHT22;11207;59.512;18.050;2023-04-15T11:43:09;13.50;86.80
22081;DHT22;11207;59.512;18.050;2023-04-15T11:45:36;13.40;86.90
22081;DHT22;11207;59.512;18.050;2023-04-15T11:48:10;13.40;88.50
22081;DHT22;11207;59.512;18.050;2023-04-15T11:50:37;13.50;92.10
22081;DHT22;11207;59.512;18.050;2023-04-15T11:53:08;13.30;74.60
22081;DHT22;11207;59.512;18.050;2023-04-15T11:55:46;13.40;90.40
22081;DHT22;11207;59.512;18.050;2023-04-15T11:58:15;13.70;93.20
22081;DHT22;11207;59.512;18.050;2023-04-15T12:00:49;13.60;73.10
22081;DHT22;11207;59.512;18.050;2023-04-15T12:03:20;13.50;83.70
22081;DHT22;11207;59.512;18.050;2023-04-15T12:08:56;13.30;82.60
22081;DHT22;11207;59.512;18.050;2023-04-15T12:14:08;13.50;87.40
22081;DHT22;11207;59.512;18.050;2023-04-15T12:16:36;13.40;77.40
22081;DHT22;11207;59.512;18.050;2023-04-15T12:19:10;13.30;78.70
22081;DHT22;11207;59.512;18.050;2023-04-15T12:21:39;13.50;90.10
22081;DHT22;11207;59.512;18.050;2023-04-15T12:24:08;13.20;77.20
22081;DHT22;11207;59.512;18.050;2023-04-15T12:26:36;13.00;87.70
22081;DHT22;11207;59.512;18.050;2023-04-15T12:29:05;13.00;91.60
22081;DHT22;11207;59.512;18.050;2023-04-15T12:31:37;13.00;86.70
22081;DHT22;11207;59.512;18.050;2023-04-15T12:34:10;13.10;83.90
22081;DHT22;11207;59.512;18.050;2023-04-15T12:36:36;13.00;82.90
22081;DHT22;11207;59.512;18.050;2023-04-15T12:39:05;13.10;80.00
22081;DHT22;11207;59.512;18.050;2023-04-15T12:41:31;12.80;80.20
22081;DHT22;11207;59.512;18.050;2023-04-15T12:43:58;12.60;77.50
22081;DHT22;11207;59.512;18.050;2023-04-15T12:46:24;12.40;80.50
22081;DHT22;11207;59.512;18.050;2023-04-15T12:48:50;12.40;77.50
22081;DHT22;11207;59.512;18.050;2023-04-15T12:51:19;12.30;85.50
22081;DHT22;11207;59.512;18.050;2023-04-15T12:53:48;12.30;79.80
22081;DHT22;11207;59.512;18.050;2023-04-15T12:56:14;12.20;82.50
22081;DHT22;11207;59.512;18.050;2023-04-15T12:58:41;12.10;81.70
22081;DHT22;11207;59.512;18.050;2023-04-15T13:01:07;12.10;81.10
22081;DHT22;11207;59.512;18.050;2023-04-15T13:03:33;12.10;81.60
22081;DHT22;11207;59.512;18.050;2023-04-15T13:05:58;12.00;79.20
22081;DHT22;11207;59.512;18.050;2023-04-15T13:08:26;11.90;89.90
22081;DHT22;11207;59.512;18.050;2023-04-15T13:10:52;11.80;86.30
22081;DHT22;11207;59.512;18.050;2023-04-15T13:13:18;12.00;86.60
22081;DHT22;11207;59.512;18.050;2023-04-15T13:15:44;12.10;84.40
22081;DHT22;11207;59.512;18.050;2023-04-15T13:18:10;11.90;79.20
22081;DHT22;11207;59.512;18.050;2023-04-15T13:20:35;11.80;81.90
22081;DHT22;11207;59.512;18.050;2023-04-15T13:23:02;11.90;86.90
22081;DHT22;11207;59.512;18.050;2023-04-15T13:25:27;11.80;80.80
22081;DHT22;11207;59.512;18.050;2023-04-15T13:27:53;11.60;84.00
22081;DHT22;11207;59.512;18.050;2023-04-15T13:30:19;11.70;85.20
22081;DHT22;11207;59.512;18.050;2023-04-15T13:32:44;11.70;81.10
22081;DHT22;11207;59.512;18.050;2023-04-15T13:35:10;11.50;90.30
22081;DHT22;11207;59.512;18.050;2023-04-15T13:37:36;11.60;85.90
22081;DHT22;11207;59.512;18.050;2023-04-15T13:40:02;11.70;81.20
22081;DHT22;11207;59.512;18.050;2023-04-15T13:42:28;11.70;84.30
22081;DHT22;11207;59.512;18.050;2023-04-15T13:44:53;11.50;80.50
22081;DHT22;11207;59.512;18.050;2023-04-15T13:47:19;11.40;80.00
22081;DHT22;11207;59.512;18.050;2023-04-15T13:49:45;11.50;81.90
22081;DHT22;11207;59.512;18.050;2023-04-15T13:52:11;11.40;82.90
22081;DHT22;11207;59.512;18.050;2023-04-15T13:54:37;11.50;85.50
22081;DHT22;11207;59.512;18.050;2023-04-15T13:57:03;11.20;78.40
22081;DHT22;11207;59.512;18.050;2023-04-15T13:59:29;11.30;84.40
22081;DHT22;11207;59.512;18.050;2023-04-15T14:01:54;11.30;83.60
22081;DHT22;11207;59.512;18.050;2023-04-15T14:04:20;11.40;82.50
22081;DHT22;11207;59.512;18.050;2023-04-15T14:06:46;11.30;80.00
22081;DHT22;11207;59.512;18.050;2023-04-15T14:09:11;11.30;78.10
22081;DHT22;11207;59.512;18.050;2023-04-15T14:11:40;11.20;76.90
22081;DHT22;11207;59.512;18.050;2023-04-15T14:14:05;11.10;90.10
22081;DHT22;11207;59.512;18.050;2023-04-15T14:16:32;11.10;82.60
22081;DHT22;11207;59.512;18.050;2023-04-15T14:18:58;11.10;78.60
22081;DHT22;11207;59.512;18.050;2023-04-15T14:21:24;11.00;77.70
22081;DHT22;11207;59.512;18.050;2023-04-15T14:23:50;10.90;79.90
22081;DHT22;11207;59.512;18.050;2023-04-15T14:26:16;10.80;81.40
22081;DHT22;11207;59.512;18.050;2023-04-15T14:28:41;10.70;80.00
22081;DHT22;11207;59.512;18.050;2023-04-15T14:31:09;10.70;78.70
22081;DHT22;11207;59.512;18.050;2023-04-15T14:33:35;10.70;79.60
22081;DHT22;11207;59.512;18.050;2023-04-15T14:36:00;10.50;80.80
22081;DHT22;11207;59.512;18.050;2023-04-15T14:38:26;10.50;84.30
22081;DHT22;11207;59.512;18.050;2023-04-15T14:40:52;10.40;80.30
22081;DHT22;11207;59.512;18.050;2023-04-15T14:43:17;10.30;78.00
22081;DHT22;11207;59.512;18.050;2023-04-15T14:45:43;10.20;78.80
22081;DHT22;11207;59.512;18.050;2023-04-15T14:48:08;10.10;75.90
22081;DHT22;11207;59.512;18.050;2023-04-15T14:50:35;10.10;81.10
22081;DHT22;11207;59.512;18.050;2023-04-15T14:53:00;10.10;81.40
22081;DHT22;11207;59.512;18.050;2023-04-15T14:55:26;10.00;77.30
22081;DHT22;11207;59.512;18.050;2023-04-15T14:57:51;10.00;78.70
22081;DHT22;11207;59.512;18.050;2023-04-15T15:00:17;9.90;74.40
22081;DHT22;11207;59.512;18.050;2023-04-15T15:02:43;9.90;80.20
22081;DHT22;11207;59.512;18.050;2023-04-15T15:05:09;9.90;77.40
22081;DHT22;11207;59.512;18.050;2023-04-15T15:07:36;9.90;73.50
22081;DHT22;11207;59.512;18.050;2023-04-15T15:10:02;9.60;78.20
22081;DHT22;11207;59.512;18.050;2023-04-15T15:12:28;9.60;75.60
22081;DHT22;11207;59.512;18.050;2023-04-15T15:14:56;9.50;78.10
22081;DHT22;11207;59.512;18.050;2023-04-15T15:17:22;9.50;79.70
22081;DHT22;11207;59.512;18.050;2023-04-15T15:19:48;9.30;79.10
22081;DHT22;11207;59.512;18.050;2023-04-15T15:22:13;9.50;83.30
22081;DHT22;11207;59.512;18.050;2023-04-15T15:24:39;9.40;80.80
22081;DHT22;11207;59.512;18.050;2023-04-15T15:27:04;9.30;81.60
22081;DHT22;11207;59.512;18.050;2023-04-15T15:29:30;9.30;83.10
22081;DHT22;11207;59.512;18.050;2023-04-15T15:31:55;9.40;80.30